createdAt,value
2019-02-23T00:02:22.190Z,26.60
2019-02-23T00:04:52.362Z,31.33
2019-02-23T00:07:22.552Z,30.77
2019-02-23T00:09:52.762Z,32.73
2019-02-23T00:12:22.837Z,33.80
2019-02-23T00:14:53.107Z,36.03
2019-02-23T00:17:23.320Z,41.13
2019-02-23T00:19:53.545Z,41.23
2019-02-23T00:22:23.751Z,40.03
2019-02-23T00:24:53.885Z,43.90
2019-02-23T00:27:24.023Z,46.33
2019-02-23T00:29:54.157Z,47.63
2019-02-23T00:32:24.295Z,49.73
2019-02-23T00:34:54.456Z,50.03
2019-02-23T00:37:24.600Z,53.30
2019-02-23T00:39:54.717Z,50.47
2019-02-23T00:42:24.968Z,53.80
2019-02-23T00:44:55.133Z,54.53
2019-02-23T00:47:25.378Z,53.43
2019-02-23T00:49:55.440Z,54.70
2019-02-23T00:52:25.601Z,56.30
2019-02-23T00:54:55.676Z,54.47
2019-02-23T00:57:25.976Z,55.37
2019-02-23T00:59:56.215Z,61.60
2019-02-23T01:02:26.446Z,62.43
2019-02-23T01:04:58.235Z,62.37
2019-02-23T01:07:28.460Z,63.03
2019-02-23T01:09:58.757Z,60.10
2019-02-23T01:12:29.103Z,60.87
2019-02-23T01:14:59.371Z,57.67
2019-02-23T01:17:29.679Z,67.40
2019-02-23T01:20:00.096Z,62.50
2019-02-23T01:22:30.452Z,65.73
2019-02-23T01:25:00.844Z,60.23
2019-02-23T01:27:30.976Z,70.13
2019-02-23T01:30:01.131Z,67.50
2019-02-23T01:32:31.444Z,68.30
2019-02-23T01:35:01.669Z,64.10
2019-02-23T01:37:31.908Z,64.87
2019-02-23T01:40:02.068Z,67.50
2019-02-23T01:42:32.241Z,68.67
2019-02-23T01:45:02.431Z,67.73
2019-02-23T01:47:32.716Z,65.60
2019-02-23T01:50:02.976Z,71.20
2019-02-23T01:52:33.181Z,66.00
2019-02-23T01:55:03.344Z,69.90
2019-02-23T01:57:33.476Z,71.77
2019-02-23T02:00:03.743Z,73.93
2019-02-23T02:02:33.994Z,71.40
2019-02-23T02:05:04.125Z,71.10
2019-02-23T02:07:34.356Z,69.13
2019-02-23T02:10:06.098Z,75.17
2019-02-23T02:12:36.242Z,71.80
2019-02-23T02:15:09.713Z,74.87
2019-02-23T02:17:39.981Z,78.13
2019-02-23T02:20:11.694Z,81.78
2019-02-23T02:22:41.994Z,73.27
2019-02-23T02:25:12.851Z,71.30
2019-02-23T02:27:43.156Z,75.83
2019-02-23T02:30:13.466Z,78.53
2019-02-23T02:32:43.691Z,77.27
2019-02-23T02:35:13.932Z,79.72
2019-02-23T02:37:44.084Z,84.30
2019-02-23T02:40:14.307Z,79.47
2019-02-23T02:42:44.398Z,77.73
2019-02-23T02:45:14.738Z,84.47
2019-02-23T02:47:44.894Z,80.53
2019-02-23T02:50:23.905Z,84.85
2019-02-23T02:52:47.280Z,84.00
2019-02-23T02:55:17.504Z,80.67
2019-02-23T02:57:47.651Z,78.17
2019-02-23T03:00:18.072Z,85.47
2019-02-23T03:02:50.659Z,93.07
2019-02-23T03:05:20.885Z,83.67
2019-02-23T03:07:51.071Z,90.77
2019-02-23T03:10:21.279Z,85.70
2019-02-23T03:12:51.441Z,86.57
2019-02-23T03:15:21.599Z,84.67
2019-02-23T03:17:51.743Z,86.93
2019-02-23T03:20:21.954Z,86.53
2019-02-23T03:23:00.160Z,93.63
2019-02-23T03:25:30.258Z,94.93
2019-02-23T03:28:00.302Z,80.10
2019-02-23T03:30:30.520Z,83.13
2019-02-23T03:33:00.690Z,82.03
2019-02-23T03:35:31.104Z,84.73
2019-02-23T03:38:01.368Z,80.00
2019-02-23T03:40:31.633Z,81.90
2019-02-23T03:43:01.942Z,89.87
2019-02-23T03:45:32.151Z,81.70
2019-02-23T03:48:02.486Z,93.57
2019-02-23T03:50:32.661Z,89.57
2019-02-23T03:53:02.922Z,82.17
2019-02-23T03:55:33.142Z,82.97
2019-02-23T03:58:03.596Z,83.63
2019-02-23T04:00:33.851Z,84.13
2019-02-23T04:03:04.124Z,86.70
2019-02-23T04:05:34.241Z,86.23
2019-02-23T04:08:04.638Z,86.87
2019-02-23T04:10:34.737Z,90.40
2019-02-23T04:13:05.009Z,89.80
2019-02-23T04:15:35.277Z,85.63
2019-02-23T04:18:06.889Z,81.83
2019-02-23T04:20:37.077Z,88.20
2019-02-23T04:23:07.381Z,92.97
2019-02-23T04:25:37.641Z,83.80
2019-02-23T04:28:07.871Z,88.80
2019-02-23T04:30:38.046Z,92.00
2019-02-23T04:33:08.358Z,93.83
2019-02-23T04:35:38.485Z,84.53
2019-02-23T04:38:09.828Z,80.57
2019-02-23T04:40:39.961Z,92.10
2019-02-23T04:43:10.119Z,100.90
2019-02-23T04:45:40.307Z,90.97
2019-02-23T04:48:10.414Z,83.73
2019-02-23T04:50:40.527Z,96.53
2019-02-23T04:53:10.737Z,96.47
2019-02-23T04:55:40.942Z,93.20
2019-02-23T04:58:11.235Z,89.70
2019-02-23T05:00:44.739Z,96.40
2019-02-23T05:03:13.416Z,94.30
2019-02-23T05:05:43.583Z,95.30
2019-02-23T05:08:13.767Z,91.97
2019-02-23T05:10:43.867Z,90.63
2019-02-23T05:13:14.016Z,95.13
2019-02-23T05:15:44.207Z,90.70
2019-02-23T05:18:14.347Z,100.60
2019-02-23T05:20:44.564Z,89.60
2019-02-23T05:23:14.903Z,88.37
2019-02-23T05:25:45.192Z,96.77
2019-02-23T05:28:15.315Z,104.55
2019-02-23T05:30:45.650Z,95.83
2019-02-23T05:33:15.889Z,93.10
2019-02-23T05:35:46.038Z,84.37
2019-02-23T05:38:16.316Z,109.47
2019-02-23T05:40:46.459Z,92.97
2019-02-23T05:43:16.600Z,96.33
2019-02-23T05:45:46.809Z,116.33
2019-02-23T05:48:20.330Z,93.53
2019-02-23T05:50:50.486Z,98.83
2019-02-23T05:53:20.559Z,91.53
2019-02-23T05:55:50.632Z,100.55
2019-02-23T05:58:20.865Z,100.57
2019-02-23T06:00:51.016Z,100.83
2019-02-23T06:03:21.472Z,108.13
2019-02-23T06:05:51.679Z,94.83
2019-02-23T06:08:21.968Z,114.42
2019-02-23T06:10:52.059Z,115.77
2019-02-23T06:13:22.611Z,90.07
2019-02-23T06:15:53.181Z,99.60
2019-02-23T06:18:23.631Z,107.27
2019-02-23T06:20:54.211Z,92.80
2019-02-23T06:23:24.812Z,114.23
2019-02-23T06:25:55.306Z,111.83
2019-02-23T06:28:26.141Z,95.60
2019-02-23T06:30:56.725Z,97.80
2019-02-23T06:33:27.196Z,103.03
2019-02-23T06:35:57.663Z,122.93
2019-02-23T06:38:28.197Z,91.07
2019-02-23T06:40:58.720Z,100.60
2019-02-23T06:43:29.154Z,93.37
2019-02-23T06:45:59.658Z,99.63
2019-02-23T06:48:30.300Z,96.42
2019-02-23T06:51:00.799Z,95.93
2019-02-23T06:53:31.157Z,108.78
2019-02-23T06:56:01.669Z,89.30
2019-02-23T06:58:32.289Z,99.70
2019-02-23T07:01:02.740Z,109.60
2019-02-23T07:03:33.368Z,122.70
2019-02-23T07:06:04.034Z,86.80
2019-02-23T07:08:34.511Z,85.07
2019-02-23T07:11:04.952Z,83.13
2019-02-23T07:13:35.905Z,88.70
2019-02-23T07:16:08.781Z,87.50
2019-02-23T07:18:39.396Z,88.83
2019-02-23T07:21:09.932Z,78.90
2019-02-23T07:23:40.467Z,99.90
2019-02-23T07:26:10.972Z,80.75
2019-02-23T07:28:41.514Z,89.27
2019-02-23T07:31:11.654Z,84.38
2019-02-23T07:33:42.009Z,88.90
2019-02-23T07:36:14.822Z,77.87
2019-02-23T07:38:44.017Z,74.27
2019-02-23T07:41:14.285Z,73.90
2019-02-23T07:43:44.568Z,70.93
2019-02-23T07:46:14.914Z,66.47
2019-02-23T07:48:49.750Z,60.37
2019-02-23T07:51:20.264Z,60.00
2019-02-23T07:53:53.797Z,63.23
2019-02-23T07:56:24.133Z,59.40
2019-02-23T07:58:54.374Z,62.07
2019-02-23T08:01:24.685Z,62.90
2019-02-23T08:03:58.920Z,57.50
2019-02-23T08:06:30.225Z,61.87
2019-02-23T08:09:00.552Z,59.87
2019-02-23T08:11:30.835Z,59.97
2019-02-23T08:14:01.070Z,55.23
2019-02-23T08:16:31.306Z,56.37
2019-02-23T08:19:01.545Z,55.23
2019-02-23T08:21:31.848Z,55.80
2019-02-23T08:24:02.078Z,56.60
2019-02-23T08:26:32.260Z,54.57
2019-02-23T08:29:02.420Z,53.60
2019-02-23T08:31:32.696Z,54.20
2019-02-23T08:34:02.917Z,55.10
2019-02-23T08:36:33.186Z,49.03
2019-02-23T08:39:03.674Z,54.07
2019-02-23T08:41:34.050Z,51.30
2019-02-23T08:44:04.403Z,53.10
2019-02-23T08:46:34.711Z,53.43
2019-02-23T08:49:04.966Z,57.10
2019-02-23T08:51:35.231Z,56.37
2019-02-23T08:54:05.511Z,55.67
2019-02-23T08:56:35.858Z,53.40
2019-02-23T08:59:06.789Z,55.28
2019-02-23T09:01:37.048Z,51.27
2019-02-23T09:04:07.398Z,55.43
2019-02-23T09:06:37.681Z,52.70
2019-02-23T09:09:09.930Z,52.00
2019-02-23T09:11:40.093Z,52.93
2019-02-23T09:14:15.849Z,50.97
2019-02-23T09:16:45.944Z,50.47
2019-02-23T09:19:23.613Z,49.47
2019-02-23T09:22:00.949Z,49.70
2019-02-23T09:24:37.617Z,50.93
2019-02-23T09:27:07.900Z,48.93
2019-02-23T09:29:44.781Z,51.43
2019-02-23T09:32:17.277Z,49.30
2019-02-23T09:34:47.530Z,48.07
2019-02-23T09:37:20.669Z,51.65
2019-02-23T09:39:51.156Z,47.03
2019-02-23T09:42:21.400Z,46.23
2019-02-23T09:44:51.746Z,43.47
2019-02-23T09:47:24.622Z,44.63
2019-02-23T09:49:54.839Z,46.77
2019-02-23T09:52:25.256Z,41.73
2019-02-23T09:54:56.650Z,41.30
2019-02-23T09:57:26.835Z,43.43
2019-02-23T09:59:56.959Z,40.50
2019-02-23T10:02:30.215Z,40.87
2019-02-23T10:05:00.492Z,39.77
2019-02-23T10:07:30.753Z,39.00
2019-02-23T10:10:00.996Z,38.03
2019-02-23T10:12:37.717Z,38.50
2019-02-23T10:15:08.456Z,36.60
2019-02-23T10:17:38.724Z,36.83
2019-02-23T10:20:09.965Z,37.67
2019-02-23T10:22:40.201Z,36.43
2019-02-23T10:25:10.508Z,33.67
2019-02-23T10:27:41.897Z,34.00
2019-02-23T10:30:13.833Z,33.70
2019-02-23T10:32:44.092Z,31.40
2019-02-23T10:35:15.664Z,34.17
2019-02-23T10:37:45.998Z,35.00
2019-02-23T10:40:19.119Z,34.53
2019-02-23T10:42:49.271Z,30.80
2019-02-23T10:45:19.473Z,33.67
2019-02-23T10:47:50.325Z,30.63
2019-02-23T10:50:22.934Z,31.90
2019-02-23T10:52:53.223Z,30.23
2019-02-23T10:55:26.382Z,32.87
2019-02-23T10:57:56.681Z,30.63
2019-02-23T11:00:27.079Z,30.37
2019-02-23T11:02:57.384Z,29.57
2019-02-23T11:05:27.836Z,30.87
2019-02-23T11:07:58.282Z,28.80
2019-02-23T11:10:28.625Z,31.20
2019-02-23T11:12:58.809Z,31.47
2019-02-23T11:15:29.230Z,27.97
2019-02-23T11:17:59.639Z,30.03
2019-02-23T11:20:30.952Z,32.40
2019-02-23T11:23:01.464Z,27.93
2019-02-23T11:25:31.749Z,28.37
2019-02-23T11:28:02.084Z,29.80
2019-02-23T11:30:32.420Z,29.50
2019-02-23T11:33:02.871Z,31.47
2019-02-23T11:35:35.160Z,28.67
2019-02-23T11:38:06.741Z,27.10
2019-02-23T11:40:36.977Z,29.43
2019-02-23T11:43:07.340Z,29.07
2019-02-23T11:45:37.754Z,30.23
2019-02-23T11:48:08.034Z,31.90
2019-02-23T11:50:41.240Z,27.87
2019-02-23T11:53:11.456Z,26.33
2019-02-23T11:55:41.770Z,26.77
2019-02-23T11:58:12.184Z,26.53
2019-02-23T12:00:42.511Z,27.03
2019-02-23T12:03:13.001Z,25.17
2019-02-23T12:05:43.430Z,23.60
2019-02-23T12:08:13.825Z,26.63
2019-02-23T12:10:44.109Z,26.47
2019-02-23T12:13:14.374Z,24.77
2019-02-23T12:15:44.704Z,27.30
2019-02-23T12:18:15.156Z,25.92
2019-02-23T12:20:50.800Z,24.23
2019-02-23T12:23:20.896Z,25.43
2019-02-23T12:25:51.321Z,27.70
2019-02-23T12:28:23.115Z,25.50
2019-02-23T12:30:53.437Z,24.30
2019-02-23T12:33:26.370Z,26.10
2019-02-23T12:35:58.568Z,24.57
2019-02-23T12:38:29.090Z,25.27
2019-02-23T12:40:59.357Z,23.60
2019-02-23T12:43:29.779Z,25.33
2019-02-23T12:46:00.103Z,23.17
2019-02-23T12:48:30.606Z,23.03
2019-02-23T12:51:00.827Z,23.37
2019-02-23T12:53:31.121Z,24.77
2019-02-23T12:56:01.319Z,22.27
2019-02-23T12:58:31.608Z,24.07
2019-02-23T13:01:01.956Z,22.23
2019-02-23T13:03:32.395Z,23.90
2019-02-23T13:06:02.783Z,23.73
2019-02-23T13:09:20.164Z,25.60
2019-02-23T13:12:03.130Z,22.70
2019-02-23T13:15:01.925Z,20.80
2019-02-23T13:18:47.773Z,21.83
2019-02-23T13:21:50.263Z,22.07
2019-02-23T13:24:53.028Z,22.90
2019-02-23T13:27:55.420Z,21.82
2019-02-23T13:31:10.936Z,23.00
2019-02-23T13:34:36.479Z,21.57
2019-02-23T13:37:32.181Z,21.42
2019-02-23T13:41:10.240Z,19.47
2019-02-23T13:44:19.421Z,20.63
2019-02-23T13:47:55.035Z,18.10
2019-02-23T13:51:30.409Z,18.70
2019-02-23T13:54:38.581Z,18.93
2019-02-23T13:57:26.154Z,20.13
2019-02-23T14:00:48.290Z,19.40
2019-02-23T14:04:29.775Z,19.13
2019-02-23T14:08:00.613Z,19.97
2019-02-23T14:11:46.381Z,19.40
2019-02-23T14:15:21.860Z,19.57
2019-02-23T14:19:04.355Z,23.17
2019-02-23T14:22:23.840Z,20.47
2019-02-23T14:25:57.258Z,22.17
2019-02-23T14:29:20.567Z,24.70
2019-02-23T14:32:55.815Z,20.73
2019-02-23T14:36:38.622Z,25.87
2019-02-23T14:39:42.698Z,22.73
2019-02-23T14:43:12.330Z,21.87
2019-02-23T14:46:36.268Z,23.20
2019-02-23T14:50:09.392Z,20.97
2019-02-23T14:53:34.986Z,21.33
2019-02-23T14:56:49.062Z,20.37
2019-02-23T15:00:01.571Z,24.07
2019-02-23T15:03:58.163Z,20.50
2019-02-23T15:07:25.330Z,21.57
2019-02-23T15:10:24.846Z,20.93
2019-02-23T15:13:37.762Z,21.73
2019-02-23T15:17:10.905Z,23.52
2019-02-23T15:20:29.465Z,25.27
2019-02-23T15:23:59.692Z,19.33
2019-02-23T15:27:03.480Z,20.67
2019-02-23T15:30:26.144Z,23.45
2019-02-23T15:33:48.843Z,22.47
2019-02-23T15:37:24.535Z,24.20
2019-02-23T15:40:34.668Z,20.40
2019-02-23T15:43:38.355Z,22.33
2019-02-23T15:47:00.946Z,22.65
2019-02-23T15:49:35.996Z,23.77
2019-02-23T15:52:08.772Z,23.27
2019-02-23T15:54:39.457Z,23.10
2019-02-23T15:57:13.322Z,23.23
2019-02-23T15:59:46.098Z,25.00
2019-02-23T16:02:16.473Z,23.83
2019-02-23T16:04:47.242Z,22.83
2019-02-23T16:07:17.746Z,23.00
2019-02-23T16:09:48.392Z,24.73
2019-02-23T16:12:21.187Z,23.97
2019-02-23T16:14:51.527Z,24.63
2019-02-23T16:17:22.051Z,24.37
2019-02-23T16:19:52.450Z,25.53
2019-02-23T16:22:22.700Z,24.80
2019-02-23T16:24:52.843Z,23.43
2019-02-23T16:27:26.117Z,23.10
2019-02-23T16:29:58.946Z,25.47
2019-02-23T16:32:31.592Z,25.93
2019-02-23T16:35:01.805Z,24.70
2019-02-23T16:37:34.775Z,26.10
2019-02-23T16:40:05.160Z,28.70
2019-02-23T16:42:35.745Z,25.23
2019-02-23T16:45:07.657Z,27.02
2019-02-23T16:47:38.191Z,26.40
2019-02-23T16:50:09.769Z,28.10
2019-02-23T16:52:40.287Z,28.80
2019-02-23T16:55:11.943Z,28.77
2019-02-23T16:57:42.597Z,27.70
2019-02-23T17:00:13.172Z,29.00
2019-02-23T17:02:43.611Z,30.73
2019-02-23T17:05:14.061Z,28.47
2019-02-23T17:07:44.791Z,29.93
2019-02-23T17:10:15.307Z,28.53
2019-02-23T17:12:46.321Z,29.53
2019-02-23T17:15:17.026Z,28.77
2019-02-23T17:17:47.793Z,32.43
2019-02-23T17:20:18.813Z,31.40
2019-02-23T17:22:49.430Z,30.83
2019-02-23T17:25:19.980Z,33.03
2019-02-23T17:27:52.489Z,31.30
2019-02-23T17:30:23.247Z,32.73
2019-02-23T17:32:53.888Z,35.53
2019-02-23T17:35:24.937Z,32.05
2019-02-23T17:37:55.478Z,34.23
2019-02-23T17:40:25.980Z,33.37
2019-02-23T17:42:56.528Z,35.07
2019-02-23T17:45:26.683Z,34.00
2019-02-23T17:47:56.754Z,35.60
2019-02-23T17:50:26.849Z,32.73
2019-02-23T17:52:57.097Z,33.30
2019-02-23T17:55:27.303Z,32.60
2019-02-23T17:57:57.471Z,33.00
2019-02-23T18:00:27.550Z,33.13
2019-02-23T18:02:57.761Z,33.27
2019-02-23T18:05:28.490Z,34.40
2019-02-23T18:07:58.627Z,34.67
2019-02-23T18:10:28.794Z,33.50
2019-02-23T18:12:58.916Z,34.37
2019-02-23T18:15:29.179Z,34.83
2019-02-23T18:17:59.401Z,34.93
2019-02-23T18:20:29.671Z,37.37
2019-02-23T18:22:59.758Z,37.00
2019-02-23T18:25:29.940Z,35.47
2019-02-23T18:28:00.335Z,37.10
2019-02-23T18:30:30.615Z,39.17
2019-02-23T18:33:00.763Z,38.73
2019-02-23T18:35:31.064Z,37.93
2019-02-23T18:38:01.210Z,41.73
2019-02-23T18:40:31.447Z,40.53
2019-02-23T18:43:01.594Z,38.67
2019-02-23T18:45:31.963Z,36.73
2019-02-23T18:48:02.493Z,41.43
2019-02-23T18:50:33.126Z,40.03
2019-02-23T18:53:03.644Z,40.60
2019-02-23T18:55:40.808Z,38.80
2019-02-23T18:58:07.089Z,41.83
2019-02-23T19:00:37.784Z,40.63
2019-02-23T19:03:08.311Z,41.57
2019-02-23T19:05:38.723Z,39.80
2019-02-23T19:08:09.280Z,44.67
2019-02-23T19:10:39.837Z,42.40
2019-02-23T19:13:10.540Z,37.83
2019-02-23T19:15:41.454Z,41.13
2019-02-23T19:18:12.244Z,41.66
2019-02-23T19:20:42.725Z,43.67
2019-02-23T19:23:14.871Z,39.83
2019-02-23T19:25:45.444Z,41.73
2019-02-23T19:28:15.926Z,44.75
2019-02-23T19:30:47.079Z,41.13
2019-02-23T19:33:18.533Z,43.55
2019-02-23T19:35:50.815Z,43.90
2019-02-23T19:38:21.662Z,47.17
2019-02-23T19:40:52.466Z,45.77
2019-02-23T19:43:22.906Z,49.23
2019-02-23T19:45:55.370Z,41.70
2019-02-23T19:48:26.229Z,43.80
2019-02-23T19:51:02.398Z,46.13
2019-02-23T19:53:33.023Z,45.27
2019-02-23T19:56:03.451Z,45.13
2019-02-23T19:58:33.972Z,43.27
2019-02-23T20:01:04.586Z,43.93
2019-02-23T20:06:31.675Z,41.33
2019-02-23T20:09:02.192Z,42.30
2019-02-23T20:11:32.746Z,46.17
2019-02-23T20:14:03.341Z,48.07
2019-02-23T20:16:33.928Z,46.63
2019-02-23T20:19:05.006Z,44.03
2019-02-23T20:21:35.769Z,48.30
2019-02-23T20:24:07.053Z,44.10
2019-02-23T20:29:09.289Z,46.60
2019-02-23T20:31:40.016Z,43.40
2019-02-23T20:34:10.773Z,43.30
2019-02-23T20:36:41.509Z,43.73
2019-02-23T20:39:12.145Z,48.48
2019-02-23T20:41:42.655Z,46.40
2019-02-23T20:44:13.404Z,46.25
2019-02-23T20:46:43.992Z,50.27
2019-02-23T20:49:14.577Z,45.93
2019-02-23T20:51:45.178Z,45.60
2019-02-23T20:54:15.720Z,50.40
2019-02-23T20:56:46.210Z,48.37
2019-02-23T20:59:16.773Z,50.10
2019-02-23T21:01:47.301Z,50.07
2019-02-23T21:04:17.923Z,48.93
2019-02-23T21:06:48.363Z,53.93
2019-02-23T21:09:18.981Z,51.70
2019-02-23T21:11:49.471Z,51.30
2019-02-23T21:14:20.021Z,48.10
2019-02-23T21:16:50.480Z,50.63
2019-02-23T21:19:21.023Z,50.33
2019-02-23T21:21:51.520Z,48.27
2019-02-23T21:24:21.928Z,49.45
2019-02-23T21:26:52.380Z,45.20
2019-02-23T21:29:22.909Z,49.50
2019-02-23T21:31:53.387Z,48.27
2019-02-23T21:34:23.890Z,49.27
2019-02-23T21:36:54.420Z,46.40
2019-02-23T21:39:24.941Z,49.03
2019-02-23T21:41:55.659Z,48.60
2019-02-23T21:44:26.173Z,50.13
2019-02-23T21:46:56.801Z,47.90
2019-02-23T21:49:27.738Z,50.00
2019-02-23T21:51:58.372Z,55.00
2019-02-23T21:54:29.005Z,47.60
2019-02-23T21:56:59.586Z,52.50
2019-02-23T21:59:30.085Z,51.13
2019-02-23T22:02:00.574Z,57.33
2019-02-23T22:04:31.259Z,53.15
2019-02-23T22:07:01.936Z,55.73
2019-02-23T22:09:32.461Z,51.05
2019-02-23T22:12:02.936Z,50.30
2019-02-23T22:14:33.619Z,53.02
2019-02-23T22:17:03.965Z,50.00
2019-02-23T22:19:34.261Z,60.17
2019-02-23T22:22:04.533Z,53.37
2019-02-23T22:24:34.783Z,49.40
2019-02-23T22:27:05.070Z,57.07
2019-02-23T22:29:35.353Z,54.83
2019-02-23T22:32:05.739Z,59.60
2019-02-23T22:34:36.068Z,53.83
2019-02-23T22:37:07.168Z,51.20
2019-02-23T22:39:37.524Z,53.27
2019-02-23T22:42:07.844Z,53.87
2019-02-23T22:44:38.151Z,54.00
2019-02-23T22:47:08.470Z,54.13
2019-02-23T22:49:38.742Z,53.80
2019-02-23T22:52:09.041Z,52.63
2019-02-23T22:54:39.297Z,52.87
2019-02-23T22:57:09.507Z,52.90
2019-02-23T22:59:39.676Z,51.17
2019-02-23T23:02:09.955Z,53.93
2019-02-23T23:04:40.159Z,56.60
2019-02-23T23:07:10.505Z,51.60
2019-02-23T23:09:40.813Z,55.53
2019-02-23T23:12:11.209Z,50.98
2019-02-23T23:14:41.501Z,52.97
2019-02-23T23:17:11.868Z,49.20
2019-02-23T23:19:42.161Z,55.97
2019-02-23T23:22:12.380Z,52.60
2019-02-23T23:24:42.608Z,53.70
2019-02-23T23:27:12.866Z,48.00
2019-02-23T23:29:43.206Z,52.87
2019-02-23T23:32:13.452Z,52.67
2019-02-23T23:34:43.630Z,50.60
2019-02-23T23:37:13.903Z,46.80
2019-02-23T23:39:44.206Z,50.60
2019-02-23T23:42:14.426Z,47.97
2019-02-23T23:44:44.817Z,48.17
2019-02-23T23:47:15.079Z,48.68
2019-02-23T23:49:45.391Z,51.47
2019-02-23T23:52:15.713Z,48.20
2019-02-23T23:54:45.967Z,48.53
2019-02-23T23:57:16.112Z,47.90
2019-02-23T23:59:46.424Z,48.67
